Time;durP1;ratioP1;P1;durP2;ratioP2;P2;SDS_P1;SDS_P2;PMS_P1;PMS_P2;Temp;Humidity;BMP_temperature;BMP_pressure;BME280_temperature;BME280_humidity;BME280_pressure;Samples;Min_cycle;Max_cycle;Signal;HPM_P1;HPM_P2
2023/02/17 00:01:41;;;;;;;39.67;30.03;;;9.00;1.00;;;;;;6262054;22;20450;-79
2023/02/17 00:04:13;;;;;;;33.70;26.30;;;9.00;1.00;;;;;;6260399;22;20435;-77
2023/02/17 00:06:45;;;;;;;31.87;25.77;;;9.00;1.00;;;;;;6247707;22;20436;-78
2023/02/17 00:09:27;;;;;;;35.40;25.20;;;9.00;1.00;;;;;;6260010;22;20400;-79
2023/02/17 00:11:56;;;;;;;37.80;25.73;;;8.90;1.00;;;;;;6263562;22;20422;-80
2023/02/17 00:14:24;;;;;;;38.03;30.97;;;8.80;1.00;;;;;;6251264;22;20897;-78
2023/02/17 00:16:55;;;;;;;34.13;25.80;;;8.70;1.00;;;;;;6261527;22;20438;-78
2023/02/17 00:19:24;;;;;;;35.57;26.97;;;8.50;1.00;;;;;;6261664;22;20380;-78
2023/02/17 00:21:58;;;;;;;36.20;25.27;;;8.40;1.00;;;;;;6264549;22;20396;-79
2023/02/17 00:24:28;;;;;;;35.53;26.98;;;8.20;1.00;;;;;;6262181;22;20524;-78
2023/02/17 00:26:57;;;;;;;32.60;25.80;;;8.10;1.00;;;;;;6264956;22;20242;-79
2023/02/17 00:29:25;;;;;;;36.05;25.73;;;8.00;1.00;;;;;;6252306;22;20383;-79
2023/02/17 00:31:56;;;;;;;35.30;27.02;;;8.00;1.00;;;;;;6265489;22;20219;-80
2023/02/17 00:34:27;;;;;;;37.72;27.40;;;7.80;1.00;;;;;;6234824;23;20266;-78
2023/02/17 00:36:55;;;;;;;40.08;27.98;;;7.80;1.00;;;;;;6259111;22;20204;-79
2023/02/17 00:39:25;;;;;;;35.47;27.42;;;7.80;1.00;;;;;;6250632;22;20220;-78
2023/02/17 00:41:57;;;;;;;37.67;27.63;;;7.80;1.00;;;;;;6219755;22;20219;-77
2023/02/17 00:44:27;;;;;;;35.77;27.50;;;7.80;1.00;;;;;;6228753;22;20250;-77
2023/02/17 00:46:57;;;;;;;36.15;28.00;;;7.70;1.00;;;;;;6205990;22;20411;-78
2023/02/17 00:49:37;;;;;;;36.90;26.83;;;7.80;1.00;;;;;;6226161;22;20196;-77
2023/02/17 00:52:07;;;;;;;36.88;27.92;;;7.70;1.00;;;;;;6215442;22;20211;-80
2023/02/17 00:54:35;;;;;;;38.55;28.40;;;7.80;1.00;;;;;;6218161;22;20212;-79
2023/02/17 00:57:14;;;;;;;40.00;28.20;;;7.80;1.00;;;;;;6215317;22;20198;-78
2023/02/17 00:59:44;;;;;;;39.50;28.93;;;7.70;1.00;;;;;;6214301;22;20204;-79
2023/02/17 01:02:17;;;;;;;37.70;26.10;;;7.80;1.00;;;;;;6212115;22;20425;-78
2023/02/17 01:04:47;;;;;;;38.88;29.33;;;7.70;1.00;;;;;;6219135;22;20219;-78
2023/02/17 01:07:15;;;;;;;40.45;28.38;;;7.70;1.00;;;;;;6214677;22;20222;-79
2023/02/17 01:09:44;;;;;;;35.67;28.37;;;7.70;1.00;;;;;;6211234;22;20218;-79
2023/02/17 01:12:15;;;;;;;38.40;27.58;;;7.70;1.00;;;;;;6212083;22;20414;-81
2023/02/17 01:14:45;;;;;;;40.60;29.00;;;7.80;1.00;;;;;;6218260;22;20213;-79
2023/02/17 01:17:12;;;;;;;38.55;27.52;;;7.70;1.00;;;;;;6204148;22;20454;-79
2023/02/17 01:19:39;;;;;;;40.90;27.42;;;7.80;1.00;;;;;;6203538;22;20275;-79
2023/02/17 01:22:09;;;;;;;37.47;27.50;;;7.80;1.00;;;;;;6204178;22;20673;-79
2023/02/17 01:24:36;;;;;;;40.20;28.97;;;7.80;1.00;;;;;;6210752;22;20428;-78
2023/02/17 01:27:03;;;;;;;36.80;26.03;;;7.70;1.00;;;;;;6204879;22;20429;-79
2023/02/17 01:29:34;;;;;;;38.27;28.43;;;7.70;1.00;;;;;;6205273;22;21144;-78
2023/02/17 01:32:04;;;;;;;39.53;28.10;;;7.70;1.00;;;;;;6201804;22;20497;-78
2023/02/17 01:34:31;;;;;;;34.40;26.70;;;7.70;1.00;;;;;;6209308;22;20418;-78
2023/02/17 01:36:58;;;;;;;38.53;27.30;;;7.80;1.00;;;;;;6195775;22;20408;-79
2023/02/17 01:39:27;;;;;;;40.13;28.47;;;7.70;1.00;;;;;;6221773;22;20445;-79
2023/02/17 01:41:54;;;;;;;35.63;27.50;;;7.70;1.00;;;;;;6240167;22;20450;-78
2023/02/17 01:44:22;;;;;;;39.17;26.92;;;7.80;1.00;;;;;;6238413;22;21020;-77
2023/02/17 01:46:59;;;;;;;38.07;26.30;;;7.70;1.00;;;;;;6242271;22;20192;-78
2023/02/17 01:49:35;;;;;;;38.70;28.70;;;7.80;1.00;;;;;;6248910;22;20450;-78
2023/02/17 01:52:11;;;;;;;35.95;25.70;;;7.80;1.00;;;;;;6224723;22;20223;-77
2023/02/17 01:54:44;;;;;;;37.35;26.15;;;7.90;1.00;;;;;;6238579;22;20284;-77
2023/02/17 01:57:21;;;;;;;35.93;26.30;;;7.90;1.00;;;;;;6228047;22;20220;-77
2023/02/17 01:59:50;;;;;;;38.95;27.98;;;7.90;1.00;;;;;;6239604;22;20426;-77
2023/02/17 02:02:20;;;;;;;36.40;27.85;;;7.90;1.00;;;;;;6258767;22;21032;-78
2023/02/17 02:04:51;;;;;;;37.67;27.15;;;7.90;1.00;;;;;;6249422;22;20209;-78
2023/02/17 02:07:30;;;;;;;38.50;29.13;;;7.90;1.00;;;;;;6245007;22;20244;-78
2023/02/17 02:10:03;;;;;;;40.43;29.07;;;7.90;1.00;;;;;;6243013;22;20431;-79
2023/02/17 02:12:33;;;;;;;38.50;28.02;;;7.80;1.00;;;;;;6211998;22;20516;-78
2023/02/17 02:15:05;;;;;;;41.78;29.60;;;7.80;1.00;;;;;;6220977;23;20244;-79
2023/02/17 02:17:42;;;;;;;43.00;30.30;;;7.80;1.00;;;;;;6250308;22;20216;-80
2023/02/17 02:20:47;;;;;;;39.78;29.45;;;7.80;1.00;;;;;;6223854;22;20431;-78
2023/02/17 02:23:48;;;;;;;40.30;29.10;;;7.80;1.00;;;;;;6251387;22;20215;-78
2023/02/17 02:26:49;;;;;;;42.95;29.48;;;7.80;1.00;;;;;;6223442;22;20928;-78
2023/02/17 02:29:39;;;;;;;44.38;30.13;;;7.70;1.00;;;;;;6237989;22;20678;-80
2023/02/17 02:32:28;;;;;;;42.25;28.60;;;7.60;1.00;;;;;;6250938;22;20266;-77
2023/02/17 02:35:15;;;;;;;46.60;33.27;;;7.60;1.00;;;;;;6254651;22;20241;-77
2023/02/17 02:37:47;;;;;;;41.67;30.35;;;7.60;1.00;;;;;;6221664;22;20417;-77
2023/02/17 02:40:16;;;;;;;41.72;29.33;;;7.70;1.00;;;;;;6239424;22;20260;-78
2023/02/17 02:42:45;;;;;;;44.22;29.38;;;7.60;1.00;;;;;;6250475;22;20213;-77
2023/02/17 02:45:15;;;;;;;43.70;31.30;;;7.60;1.00;;;;;;6251555;22;20213;-78
2023/02/17 02:47:47;;;;;;;42.33;30.17;;;7.60;1.00;;;;;;6237543;22;20236;-78
2023/02/17 02:50:25;;;;;;;44.03;29.13;;;7.60;1.00;;;;;;6235770;22;20500;-78
2023/02/17 02:53:11;;;;;;;44.30;30.73;;;7.70;1.00;;;;;;6256620;22;20435;-77
2023/02/17 02:55:52;;;;;;;42.23;29.90;;;7.70;1.00;;;;;;6261020;22;20205;-77
2023/02/17 02:58:28;;;;;;;44.80;31.77;;;7.70;1.00;;;;;;6260961;22;20432;-79
2023/02/17 03:01:18;;;;;;;42.53;32.10;;;7.70;1.00;;;;;;6247998;22;20442;-78
2023/02/17 03:04:13;;;;;;;41.15;30.85;;;7.70;1.00;;;;;;6248343;22;20436;-77
2023/02/17 03:07:00;;;;;;;45.22;30.75;;;7.60;1.00;;;;;;6232454;22;20267;-77
2023/02/17 03:09:31;;;;;;;44.17;30.38;;;7.50;1.00;;;;;;6224151;22;20240;-78
2023/02/17 03:12:00;;;;;;;44.67;30.58;;;7.50;1.00;;;;;;6262255;22;20215;-77
2023/02/17 03:14:43;;;;;;;48.37;33.87;;;7.50;1.00;;;;;;6213046;22;20205;-78
2023/02/17 03:17:10;;;;;;;44.72;32.22;;;7.50;1.00;;;;;;6232356;22;20407;-79
2023/02/17 03:19:44;;;;;;;43.47;33.20;;;7.50;1.00;;;;;;6234038;22;20259;-78
2023/02/17 03:22:19;;;;;;;49.20;34.30;;;7.50;1.00;;;;;;6233909;22;20218;-78
2023/02/17 03:24:49;;;;;;;43.38;32.65;;;7.50;1.00;;;;;;6235607;22;20217;-78
2023/02/17 03:27:20;;;;;;;47.60;33.00;;;7.50;1.00;;;;;;6246669;22;20233;-78
2023/02/17 03:29:50;;;;;;;47.30;33.58;;;7.50;1.00;;;;;;6230194;22;20212;-78
2023/02/17 03:32:19;;;;;;;44.70;32.35;;;7.50;1.00;;;;;;6217992;22;20246;-78
2023/02/17 03:34:51;;;;;;;50.10;32.63;;;7.50;1.00;;;;;;6236940;22;20683;-78
2023/02/17 03:37:20;;;;;;;54.00;32.28;;;7.50;1.00;;;;;;6225905;22;20279;-77
2023/02/17 03:39:50;;;;;;;54.50;33.00;;;7.50;1.00;;;;;;6254385;22;20213;-78
2023/02/17 03:42:19;;;;;;;46.50;32.38;;;7.50;1.00;;;;;;6235091;22;20201;-78
2023/02/17 03:44:52;;;;;;;50.15;35.42;;;7.50;1.00;;;;;;6260231;22;20223;-78
2023/02/17 03:47:22;;;;;;;51.13;34.85;;;7.50;1.00;;;;;;6253226;22;20250;-79
2023/02/17 03:49:58;;;;;;;46.95;33.00;;;7.50;1.00;;;;;;6265327;22;20250;-80
2023/02/17 03:52:30;;;;;;;46.42;31.65;;;7.60;1.00;;;;;;6263542;22;20227;-79
2023/02/17 03:55:01;;;;;;;50.60;34.03;;;7.60;1.00;;;;;;6235645;22;20245;-78
2023/02/17 03:57:33;;;;;;;51.85;35.10;;;7.50;1.00;;;;;;6225474;22;20220;-79
2023/02/17 04:00:03;;;;;;;48.47;35.35;;;7.50;1.00;;;;;;6227944;22;20207;-77
2023/02/17 04:02:33;;;;;;;49.33;35.38;;;7.50;1.00;;;;;;6250147;22;20219;-80
2023/02/17 04:05:02;;;;;;;46.35;33.78;;;7.50;1.00;;;;;;6247256;22;20214;-79
2023/02/17 04:07:30;;;;;;;49.22;35.53;;;7.50;1.00;;;;;;6239878;22;20222;-77
2023/02/17 04:10:01;;;;;;;53.67;36.28;;;7.50;1.00;;;;;;6234554;22;20229;-79
2023/02/17 04:12:31;;;;;;;49.08;33.65;;;7.50;1.00;;;;;;6226848;22;20746;-79
2023/02/17 04:15:00;;;;;;;50.33;34.25;;;7.50;1.00;;;;;;6249426;22;20219;-76
2023/02/17 04:17:30;;;;;;;47.57;34.17;;;7.50;1.00;;;;;;6263631;22;20265;-78
2023/02/17 04:20:02;;;;;;;45.65;33.08;;;7.50;1.00;;;;;;6250944;22;20403;-77
2023/02/17 04:22:31;;;;;;;44.97;34.47;;;7.60;1.00;;;;;;6259874;22;20198;-80
2023/02/17 04:25:00;;;;;;;50.75;34.13;;;7.60;1.00;;;;;;6231973;22;20194;-77
2023/02/17 04:27:29;;;;;;;51.28;35.67;;;7.60;1.00;;;;;;6193989;22;20223;-80
2023/02/17 04:30:05;;;;;;;44.35;32.95;;;7.60;1.00;;;;;;6229145;22;20213;-81
2023/02/17 04:32:43;;;;;;;;;;;;;;;;;;;;;
2023/02/17 04:35:12;;;;;;;47.17;35.17;;;7.60;1.00;;;;;;6224337;22;40493;-79
2023/02/17 04:37:40;;;;;;;50.42;34.70;;;7.60;1.00;;;;;;6228091;22;20213;-79
2023/02/17 04:40:20;;;;;;;48.70;34.50;;;7.60;1.00;;;;;;6244510;22;20338;-79
2023/02/17 04:42:51;;;;;;;50.20;33.80;;;7.60;1.00;;;;;;6251135;22;20988;-78
2023/02/17 04:45:23;;;;;;;46.25;33.85;;;7.70;1.00;;;;;;6227253;22;20443;-78
2023/02/17 04:47:50;;;;;;;45.20;32.08;;;7.70;1.00;;;;;;6194206;22;20247;-78
2023/02/17 04:50:21;;;;;;;48.17;33.03;;;7.70;1.00;;;;;;6234235;22;20234;-78
2023/02/17 04:52:51;;;;;;;51.10;35.20;;;7.70;1.00;;;;;;6235552;22;20203;-81
2023/02/17 04:55:22;;;;;;;44.75;33.00;;;7.80;1.00;;;;;;6236242;22;20241;-77
2023/02/17 04:57:52;;;;;;;43.28;32.08;;;7.80;1.00;;;;;;6226506;22;20208;-81
2023/02/17 05:00:21;;;;;;;43.10;30.03;;;7.80;1.00;;;;;;6241003;22;20214;-78
2023/02/17 05:02:51;;;;;;;47.42;31.08;;;7.70;1.00;;;;;;6245205;22;20374;-77
2023/02/17 05:05:33;;;;;;;42.92;31.25;;;7.80;1.00;;;;;;6225361;22;20197;-77
2023/02/17 05:08:01;;;;;;;46.00;31.20;;;7.80;1.00;;;;;;6233417;22;20211;-78
2023/02/17 05:10:31;;;;;;;44.80;33.07;;;7.80;1.00;;;;;;6242881;22;20218;-78
2023/02/17 05:13:02;;;;;;;47.67;33.08;;;7.80;1.00;;;;;;6229183;22;20380;-79
2023/02/17 05:15:30;;;;;;;44.70;32.13;;;7.80;1.00;;;;;;6220241;22;20213;-79
2023/02/17 05:18:00;;;;;;;47.30;33.60;;;7.80;1.00;;;;;;6243101;22;20213;-79
2023/02/17 05:20:32;;;;;;;47.53;32.83;;;7.80;1.00;;;;;;6250472;22;20217;-82
2023/02/17 05:23:00;;;;;;;42.38;31.30;;;7.80;1.00;;;;;;6235426;22;20212;-78
2023/02/17 05:25:30;;;;;;;44.50;30.43;;;7.80;1.00;;;;;;6247088;22;20224;-79
2023/02/17 05:28:01;;;;;;;49.38;34.28;;;7.80;1.00;;;;;;6232126;22;20415;-79
2023/02/17 05:30:49;;;;;;;48.60;34.67;;;7.80;1.00;;;;;;6214613;22;20262;-78
2023/02/17 05:33:20;;;;;;;47.20;32.45;;;7.80;1.00;;;;;;6238899;22;20220;-79
2023/02/17 05:35:50;;;;;;;49.00;33.28;;;7.80;1.00;;;;;;6223303;22;20237;-81
2023/02/17 05:38:22;;;;;;;49.45;32.25;;;7.80;1.00;;;;;;6212584;22;20311;-79
2023/02/17 05:40:51;;;;;;;50.92;34.65;;;7.80;1.00;;;;;;6221156;22;20240;-80
2023/02/17 05:43:20;;;;;;;49.40;35.08;;;7.80;1.00;;;;;;6217194;22;20202;-79
2023/02/17 05:45:50;;;;;;;47.78;31.92;;;7.80;1.00;;;;;;6242520;22;20213;-79
2023/02/17 05:48:23;;;;;;;47.17;33.83;;;7.90;1.00;;;;;;6226174;22;20203;-78
2023/02/17 05:50:51;;;;;;;48.05;33.30;;;7.90;1.00;;;;;;6253704;22;20216;-79
2023/02/17 05:53:20;;;;;;;46.97;31.48;;;7.90;1.00;;;;;;6209028;22;21053;-81
2023/02/17 05:55:52;;;;;;;49.33;32.10;;;7.90;1.00;;;;;;6229010;22;20227;-79
2023/02/17 05:58:20;;;;;;;44.20;31.57;;;7.90;1.00;;;;;;6218661;22;20400;-81
2023/02/17 06:00:51;;;;;;;43.35;30.45;;;7.90;1.00;;;;;;6223951;22;20408;-81
2023/02/17 06:03:23;;;;;;;45.47;30.90;;;7.90;1.00;;;;;;6230104;22;20219;-80
2023/02/17 06:08:52;;;;;;;43.97;30.97;;;7.90;1.00;;;;;;6229312;22;20767;-80
2023/02/17 06:11:20;;;;;;;48.40;32.00;;;8.00;1.00;;;;;;6205547;22;20439;-80
2023/02/17 06:13:51;;;;;;;44.53;30.20;;;8.00;1.00;;;;;;6252767;22;20922;-80
2023/02/17 06:16:21;;;;;;;44.97;32.20;;;8.00;1.00;;;;;;6214100;22;20205;-79
2023/02/17 06:18:50;;;;;;;41.88;31.15;;;8.00;1.00;;;;;;6228062;22;20737;-78
2023/02/17 06:21:37;;;;;;;45.45;31.55;;;8.00;1.00;;;;;;6188404;22;20220;-78
2023/02/17 06:24:10;;;;;;;42.40;29.42;;;8.00;1.00;;;;;;6204475;22;20338;-80
2023/02/17 06:26:41;;;;;;;41.20;30.57;;;8.00;1.00;;;;;;6220383;22;20208;-81
2023/02/17 06:29:10;;;;;;;41.97;29.48;;;7.90;1.00;;;;;;6218227;22;20392;-79
2023/02/17 06:31:43;;;;;;;40.80;29.58;;;7.90;1.00;;;;;;6210708;22;20212;-80
2023/02/17 06:34:10;;;;;;;46.92;31.45;;;7.90;1.00;;;;;;6238368;22;20210;-81
2023/02/17 06:36:52;;;;;;;47.63;31.70;;;8.00;1.00;;;;;;6224325;22;20216;-80
2023/02/17 06:39:23;;;;;;;44.93;32.10;;;8.00;1.00;;;;;;6232011;22;20240;-82
2023/02/17 06:42:12;;;;;;;41.03;29.10;;;8.00;1.00;;;;;;6230851;22;20978;-81
2023/02/17 06:44:50;;;;;;;40.40;29.77;;;8.00;1.00;;;;;;6245975;22;20193;-83
2023/02/17 06:47:20;;;;;;;38.53;29.17;;;8.00;1.00;;;;;;6244637;22;20299;-82
2023/02/17 06:49:50;;;;;;;38.83;28.42;;;8.10;1.00;;;;;;6225411;22;20398;-83
2023/02/17 06:52:22;;;;;;;37.40;29.00;;;8.10;1.00;;;;;;6207775;22;20700;-83
2023/02/17 06:54:50;;;;;;;38.70;27.80;;;8.10;1.00;;;;;;6223796;22;20390;-83
2023/02/17 06:57:20;;;;;;;37.47;28.03;;;8.20;1.00;;;;;;6223125;22;20507;-83
2023/02/17 06:59:51;;;;;;;38.23;27.97;;;8.20;1.00;;;;;;6219710;22;20409;-83
2023/02/17 07:02:21;;;;;;;37.50;27.53;;;8.20;1.00;;;;;;6194361;22;20403;-81
2023/02/17 07:04:51;;;;;;;39.60;27.50;;;8.30;1.00;;;;;;6206293;22;20375;-78
2023/02/17 07:07:30;;;;;;;35.37;26.47;;;8.30;1.00;;;;;;6225557;22;20395;-78
2023/02/17 07:10:00;;;;;;;34.15;25.83;;;8.30;1.00;;;;;;6208086;22;20397;-80
2023/02/17 07:12:32;;;;;;;36.93;25.90;;;8.30;1.00;;;;;;6224559;22;20209;-82
2023/02/17 07:15:01;;;;;;;35.60;24.60;;;8.40;1.00;;;;;;6223678;22;20400;-82
2023/02/17 07:17:35;;;;;;;37.53;26.40;;;8.40;1.00;;;;;;6213931;22;20400;-82
2023/02/17 07:20:03;;;;;;;29.58;23.80;;;8.40;1.00;;;;;;6227100;22;20413;-85
2023/02/17 07:22:40;;;;;;;32.33;24.70;;;8.40;1.00;;;;;;6210018;22;20273;-85
2023/02/17 07:25:11;;;;;;;34.63;26.17;;;8.40;1.00;;;;;;6196967;22;20383;-83
2023/02/17 07:27:42;;;;;;;31.03;22.13;;;8.50;1.00;;;;;;6206998;22;20389;-80
2023/02/17 07:30:11;;;;;;;30.70;23.63;;;8.50;1.00;;;;;;6207202;22;20454;-79
2023/02/17 07:32:44;;;;;;;29.10;23.50;;;8.50;1.00;;;;;;6214531;22;20409;-80
2023/02/17 07:35:11;;;;;;;32.73;24.27;;;8.50;1.00;;;;;;6214803;22;20255;-79
2023/02/17 07:37:41;;;;;;;29.70;24.10;;;8.60;1.00;;;;;;6209138;22;20415;-81
2023/02/17 07:40:11;;;;;;;30.43;23.23;;;8.60;1.00;;;;;;6214968;22;20413;-80
2023/02/17 07:42:42;;;;;;;32.23;23.13;;;8.70;1.00;;;;;;6226509;22;20406;-81
2023/02/17 07:45:10;;;;;;;28.53;23.03;;;8.70;1.00;;;;;;6213747;22;20408;-82
2023/02/17 07:47:42;;;;;;;29.27;23.10;;;8.70;1.00;;;;;;6214275;22;20412;-81
2023/02/17 07:50:12;;;;;;;28.33;21.13;;;8.80;1.00;;;;;;6258063;22;20413;-82
2023/02/17 07:53:21;;;;;;;30.40;23.00;;;8.80;1.00;;;;;;6265545;22;20419;-84
2023/02/17 07:55:53;;;;;;;29.07;22.07;;;8.80;1.00;;;;;;6260535;22;20379;-83
2023/02/17 07:58:21;;;;;;;28.30;22.00;;;8.90;1.00;;;;;;6243713;22;20412;-82
2023/02/17 08:00:50;;;;;;;27.40;20.47;;;8.90;1.00;;;;;;6262139;22;20404;-78
2023/02/17 08:03:22;;;;;;;27.43;20.60;;;9.00;1.00;;;;;;6246621;22;20435;-81
2023/02/17 08:06:00;;;;;;;26.87;20.10;;;9.00;1.00;;;;;;6247387;22;20385;-80
2023/02/17 08:14:07;;;;;;;26.70;20.40;;;9.10;1.00;;;;;;6222966;22;20414;-81
2023/02/17 08:16:39;;;;;;;24.03;19.40;;;9.10;1.00;;;;;;6218285;22;20479;-82
2023/02/17 08:19:12;;;;;;;27.10;20.73;;;9.20;1.00;;;;;;6214685;22;20412;-79
2023/02/17 08:21:43;;;;;;;27.70;18.33;;;9.30;1.00;;;;;;6223865;22;20436;-82
2023/02/17 08:24:20;;;;;;;26.63;19.57;;;9.20;1.00;;;;;;6225323;22;20373;-82
2023/02/17 08:27:10;;;;;;;25.37;17.80;;;9.30;1.00;;;;;;6242251;22;20400;-81
2023/02/17 08:29:42;;;;;;;23.40;18.43;;;9.30;1.00;;;;;;6223746;22;20482;-82
2023/02/17 08:32:11;;;;;;;25.83;18.80;;;9.30;1.00;;;;;;6222337;22;20391;-82
2023/02/17 08:34:52;;;;;;;26.47;19.87;;;9.40;1.00;;;;;;6250594;22;20384;-81
2023/02/17 08:37:21;;;;;;;28.40;19.83;;;9.40;1.00;;;;;;6245776;22;20428;-81
2023/02/17 08:39:53;;;;;;;27.10;20.00;;;9.40;1.00;;;;;;6235344;22;20408;-80
2023/02/17 08:42:32;;;;;;;26.93;19.10;;;9.40;1.00;;;;;;6242941;22;20388;-80
2023/02/17 08:45:02;;;;;;;25.80;19.70;;;9.40;1.00;;;;;;6235938;22;20575;-81
2023/02/17 08:47:30;;;;;;;23.77;18.50;;;9.40;1.00;;;;;;6212716;22;20382;-80
2023/02/17 08:50:10;;;;;;;;;;;;;;;;;;;;;
2023/02/17 08:52:43;;;;;;;27.60;19.53;;;9.40;1.00;;;;;;6202361;22;49039;-83
2023/02/17 08:55:22;;;;;;;;;;;;;;;;;;;;;
2023/02/17 08:58:04;;;;;;;22.70;18.83;;;9.40;1.00;;;;;;6241162;22;40894;-84
2023/02/17 09:00:31;;;;;;;24.93;18.93;;;9.40;1.00;;;;;;6210372;22;21178;-83
2023/02/17 09:03:32;;;;;;;24.43;20.40;;;9.40;1.00;;;;;;6211068;22;20416;-83
2023/02/17 09:06:03;;;;;;;26.67;19.17;;;9.40;1.00;;;;;;6175880;22;20424;-80
2023/02/17 09:08:31;;;;;;;24.30;19.40;;;9.50;1.00;;;;;;6216858;22;20420;-79
2023/02/17 09:11:01;;;;;;;25.67;19.77;;;9.50;1.00;;;;;;6229463;22;20428;-82
2023/02/17 09:13:44;;;;;;;25.23;19.40;;;9.50;1.00;;;;;;6251034;22;20381;-83
2023/02/17 09:16:13;;;;;;;25.17;19.33;;;9.50;1.00;;;;;;6230708;22;20396;-80
2023/02/17 09:18:52;;;;;;;26.47;20.20;;;9.40;1.00;;;;;;6245316;22;21094;-84
2023/02/17 09:21:24;;;;;;;25.60;19.90;;;9.40;1.00;;;;;;6230914;22;20411;-84
2023/02/17 09:23:53;;;;;;;25.17;19.53;;;9.40;1.00;;;;;;6242489;22;20420;-82
2023/02/17 09:26:22;;;;;;;23.03;18.73;;;9.40;1.00;;;;;;6232696;22;20416;-82
2023/02/17 09:29:02;;;;;;;27.23;19.73;;;9.40;1.00;;;;;;6239448;22;20409;-80
2023/02/17 09:31:42;;;;;;;27.87;19.80;;;9.40;1.00;;;;;;6240437;22;20457;-80
2023/02/17 09:34:12;;;;;;;29.07;20.80;;;9.40;1.00;;;;;;6205377;22;20399;-81
2023/02/17 09:36:43;;;;;;;24.30;19.43;;;9.40;1.00;;;;;;6242393;22;20417;-83
2023/02/17 09:39:13;;;;;;;27.83;20.13;;;9.40;1.00;;;;;;6231912;22;20412;-80
2023/02/17 09:41:51;;;;;;;26.33;19.33;;;9.50;1.00;;;;;;6242518;22;20389;-81
2023/02/17 09:44:41;;;;;;;27.83;20.40;;;9.50;1.00;;;;;;6245190;22;20421;-81
2023/02/17 09:47:20;;;;;;;28.50;20.20;;;9.40;1.00;;;;;;6230827;22;20447;-80
2023/02/17 09:50:10;;;;;;;28.27;19.93;;;9.40;1.00;;;;;;6222383;23;20417;-80
2023/02/17 09:53:10;;;;;;;25.07;18.77;;;9.50;1.00;;;;;;6253186;22;20376;-80
2023/02/17 09:55:44;;;;;;;26.23;19.30;;;9.50;1.00;;;;;;6235880;22;20389;-81
2023/02/17 09:58:30;;;;;;;25.53;19.27;;;9.50;1.00;;;;;;6214614;22;20410;-81
2023/02/17 10:01:12;;;;;;;25.77;19.90;;;9.50;1.00;;;;;;6232051;22;20424;-80
2023/02/17 10:03:50;;;;;;;25.43;19.13;;;9.50;1.00;;;;;;6227508;22;20401;-81
2023/02/17 10:06:31;;;;;;;27.13;20.17;;;9.50;1.00;;;;;;6229103;22;20444;-80
2023/02/17 10:09:10;;;;;;;25.30;19.40;;;9.50;1.00;;;;;;6219241;22;20413;-80
2023/02/17 10:11:44;;;;;;;25.40;18.87;;;9.60;1.00;;;;;;6240890;22;20382;-82
2023/02/17 10:14:34;;;;;;;24.87;18.90;;;9.60;1.00;;;;;;6265392;22;20396;-83
2023/02/17 10:17:06;;;;;;;24.17;18.40;;;9.50;1.00;;;;;;6262613;22;20392;-78
2023/02/17 10:19:48;;;;;;;25.37;20.47;;;9.50;1.00;;;;;;6261965;22;20440;-81
2023/02/17 10:22:21;;;;;;;24.27;18.90;;;9.50;1.00;;;;;;6255738;22;20535;-81
2023/02/17 10:24:53;;;;;;;29.10;22.17;;;9.50;1.00;;;;;;6248465;22;20400;-80
2023/02/17 10:27:44;;;;;;;28.93;22.17;;;9.50;1.00;;;;;;6235034;22;20389;-81
2023/02/17 10:30:46;;;;;;;30.50;21.67;;;9.50;1.00;;;;;;6251599;22;20412;-80
2023/02/17 10:33:40;;;;;;;27.67;21.97;;;9.50;1.00;;;;;;6258869;22;20436;-80
2023/02/17 10:36:23;;;;;;;30.03;21.13;;;9.50;1.00;;;;;;6221112;22;20484;-83
2023/02/17 10:38:53;;;;;;;28.40;22.30;;;9.50;1.00;;;;;;6232731;22;20404;-82
2023/02/17 10:41:29;;;;;;;26.37;21.23;;;9.50;1.00;;;;;;6208066;22;20379;-82
2023/02/17 10:44:11;;;;;;;29.63;23.17;;;9.50;1.00;;;;;;6261335;22;20410;-82
2023/02/17 10:46:47;;;;;;;28.50;21.50;;;9.60;1.00;;;;;;6237036;22;20428;-84
2023/02/17 10:49:37;;;;;;;;;;;;;;;;;;;;;
2023/02/17 10:52:21;;;;;;;33.03;21.77;;;9.60;1.00;;;;;;6207981;22;39897;-82
2023/02/17 10:55:01;;;;;;;27.70;22.80;;;9.60;1.00;;;;;;6231417;22;21164;-82
2023/02/17 10:57:45;;;;;;;29.97;22.83;;;9.70;1.00;;;;;;6234580;22;20416;-83
2023/02/17 11:03:04;;;;;;;28.53;23.40;;;9.80;1.00;;;;;;6242694;22;20384;-80
2023/02/17 11:05:41;;;;;;;31.40;21.90;;;9.80;1.00;;;;;;6242084;22;20401;-79
2023/02/17 11:08:31;;;;;;;27.60;22.07;;;9.80;1.00;;;;;;6250170;22;20463;-80
2023/02/17 11:11:04;;;;;;;29.13;22.90;;;9.80;1.00;;;;;;6232173;22;20392;-79
2023/02/17 11:14:02;;;;;;;26.13;22.23;;;9.80;1.00;;;;;;6248225;22;20428;-81
2023/02/17 11:16:40;;;;;;;27.53;22.43;;;9.80;1.00;;;;;;6230976;22;20408;-80
2023/02/17 11:19:24;;;;;;;27.07;22.13;;;9.80;1.00;;;;;;6235218;22;20668;-80
2023/02/17 11:22:03;;;;;;;27.83;21.83;;;9.90;1.00;;;;;;6248124;22;20396;-82
2023/02/17 11:24:35;;;;;;;27.13;21.23;;;10.00;1.00;;;;;;6234484;22;20409;-83
2023/02/17 11:30:09;;;;;;;;;;;;;;;;;;;;;
2023/02/17 11:32:54;;;;;;;29.07;22.63;;;10.00;1.00;;;;;;6237706;22;50811;-84
2023/02/17 11:35:30;;;;;;;24.37;19.37;;;10.10;1.00;;;;;;6202663;23;20381;-78
2023/02/17 11:38:13;;;;;;;25.13;19.40;;;10.10;1.00;;;;;;6201232;23;20398;-85
2023/02/17 11:40:51;;;;;;;27.07;20.17;;;10.10;1.00;;;;;;6227469;22;20389;-82
2023/02/17 11:43:24;;;;;;;24.03;18.30;;;10.10;1.00;;;;;;6207758;22;20507;-84
2023/02/17 11:46:32;;;;;;;27.50;19.53;;;10.10;1.00;;;;;;6206813;22;20412;-82
2023/02/17 11:49:31;;;;;;;22.73;18.30;;;10.20;1.00;;;;;;6218556;22;20444;-82
2023/02/17 11:52:22;;;;;;;23.83;17.90;;;10.20;1.00;;;;;;6226054;22;20402;-83
2023/02/17 11:55:31;;;;;;;22.43;17.77;;;10.30;1.00;;;;;;6198914;22;20447;-83
2023/02/17 11:58:21;;;;;;;23.40;17.23;;;10.30;1.00;;;;;;6169376;22;20412;-81
2023/02/17 12:01:02;;;;;;;22.00;17.50;;;10.40;1.00;;;;;;6223373;22;20445;-82
2023/02/17 12:04:01;;;;;;;22.60;17.13;;;10.40;1.00;;;;;;6210688;22;20449;-80
2023/02/17 12:06:50;;;;;;;23.10;16.23;;;10.40;1.00;;;;;;6237868;22;20453;-79
2023/02/17 12:09:28;;;;;;;21.27;15.80;;;10.40;1.00;;;;;;6206063;22;20405;-80
2023/02/17 12:12:10;;;;;;;18.80;14.30;;;10.40;1.00;;;;;;6234125;22;20462;-79
2023/02/17 12:15:00;;;;;;;24.97;16.10;;;10.40;1.00;;;;;;6226799;22;20414;-81
2023/02/17 12:17:41;;;;;;;22.13;14.23;;;10.50;1.00;;;;;;6233850;22;20425;-79
2023/02/17 12:20:44;;;;;;;19.80;15.50;;;10.50;1.00;;;;;;6212055;22;20392;-79
2023/02/17 12:23:45;;;;;;;19.10;13.60;;;10.60;1.00;;;;;;6200357;22;20426;-79
2023/02/17 12:26:22;;;;;;;16.40;12.50;;;10.60;1.00;;;;;;6210587;22;20416;-82
2023/02/17 12:28:59;;;;;;;17.70;13.10;;;10.70;1.00;;;;;;6211845;23;20432;-80
2023/02/17 12:31:51;;;;;;;16.67;12.13;;;10.70;1.00;;;;;;6204323;22;20472;-80
2023/02/17 12:34:35;;;;;;;17.07;11.83;;;10.80;1.00;;;;;;6216772;22;20389;-81
2023/02/17 12:37:06;;;;;;;18.17;12.17;;;10.80;1.00;;;;;;6218433;22;20776;-77
2023/02/17 12:39:46;;;;;;;16.83;11.33;;;10.90;1.00;;;;;;6212140;22;20419;-82
2023/02/17 12:42:21;;;;;;;17.23;11.33;;;11.00;1.00;;;;;;6216879;22;20473;-79
2023/02/17 12:44:56;;;;;;;16.50;10.77;;;11.10;1.00;;;;;;6221438;22;20424;-79
2023/02/17 12:47:36;;;;;;;15.70;10.47;;;11.20;1.00;;;;;;6213665;22;20433;-79
2023/02/17 12:50:06;;;;;;;13.97;9.20;;;11.20;1.00;;;;;;6216786;22;20398;-79
2023/02/17 12:52:40;;;;;;;15.07;9.67;;;11.40;1.00;;;;;;6212319;22;20429;-80
2023/02/17 12:55:17;;;;;;;13.70;8.83;;;11.50;1.00;;;;;;6209794;22;20393;-79
2023/02/17 12:57:52;;;;;;;14.50;10.77;;;11.60;1.00;;;;;;6205417;22;20430;-80
2023/02/17 13:00:25;;;;;;;13.53;8.93;;;11.70;1.00;;;;;;6212790;23;20464;-79
2023/02/17 13:03:05;;;;;;;13.50;8.53;;;11.80;1.00;;;;;;6222417;22;20432;-78
2023/02/17 13:05:45;;;;;;;13.67;9.07;;;11.90;1.00;;;;;;6211550;22;20409;-80
2023/02/17 13:08:26;;;;;;;12.73;8.30;;;11.90;1.00;;;;;;6223856;22;20406;-78
2023/02/17 13:11:27;;;;;;;13.10;8.73;;;11.90;1.00;;;;;;6223240;22;20421;-78
2023/02/17 13:14:19;;;;;;;12.53;8.30;;;11.90;1.00;;;;;;6237142;22;20397;-83
2023/02/17 13:16:46;;;;;;;12.03;8.57;;;11.90;1.00;;;;;;6213866;22;20392;-84
2023/02/17 13:19:27;;;;;;;12.93;9.00;;;11.90;1.00;;;;;;6237006;22;20428;-83
2023/02/17 13:21:58;;;;;;;14.37;8.97;;;11.90;1.00;;;;;;6218518;22;20386;-84
2023/02/17 13:24:37;;;;;;;14.03;8.87;;;12.00;1.00;;;;;;6230954;22;20398;-80
2023/02/17 13:27:36;;;;;;;12.90;8.40;;;12.00;1.00;;;;;;6218623;22;20374;-80
2023/02/17 13:30:36;;;;;;;11.27;8.00;;;12.00;1.00;;;;;;6223141;22;20409;-81
2023/02/17 13:33:39;;;;;;;12.73;8.00;;;12.10;1.00;;;;;;6227893;22;20419;-81
2023/02/17 13:36:35;;;;;;;12.30;8.53;;;12.30;1.00;;;;;;6222707;22;20390;-81
2023/02/17 13:39:26;;;;;;;11.90;7.57;;;12.40;1.00;;;;;;6221755;22;20386;-82
2023/02/17 13:41:59;;;;;;;11.40;7.47;;;12.50;1.00;;;;;;6235283;22;20414;-81
2023/02/17 13:44:29;;;;;;;12.50;7.63;;;12.60;1.00;;;;;;6247915;22;20382;-81
2023/02/17 13:47:03;;;;;;;11.20;7.63;;;12.70;1.00;;;;;;6232093;22;20390;-79
2023/02/17 13:49:37;;;;;;;10.73;6.77;;;12.70;1.00;;;;;;6233583;22;20392;-80